createdAt,value
2019-03-28T00:00:59.336Z,8.00
2019-03-28T00:03:27.145Z,8.00
2019-03-28T00:05:55.056Z,7.90
2019-03-28T00:08:22.720Z,8.00
2019-03-28T00:10:50.467Z,8.00
2019-03-28T00:13:18.416Z,8.00
2019-03-28T00:15:46.157Z,8.00
2019-03-28T00:18:13.921Z,8.00
2019-03-28T00:20:41.684Z,8.00
2019-03-28T00:23:44.205Z,7.90
2019-03-28T00:26:12.040Z,7.90
2019-03-28T00:28:39.804Z,8.00
2019-03-28T00:31:07.702Z,7.90
2019-03-28T00:33:35.465Z,7.90
2019-03-28T00:36:03.312Z,8.00
2019-03-28T00:38:31.060Z,8.00
2019-03-28T00:40:59.016Z,8.00
2019-03-28T00:43:27.066Z,8.00
2019-03-28T00:45:54.815Z,8.00
2019-03-28T00:48:22.568Z,7.90
2019-03-28T00:50:50.328Z,7.90
2019-03-28T00:53:18.084Z,8.00
2019-03-28T00:55:45.812Z,8.00
2019-03-28T00:58:13.571Z,8.10
2019-03-28T01:00:41.317Z,8.10
2019-03-28T01:03:09.048Z,8.10
2019-03-28T01:05:36.871Z,8.10
2019-03-28T01:08:04.757Z,8.00
2019-03-28T01:10:32.484Z,7.90
2019-03-28T01:13:00.226Z,8.00
2019-03-28T01:15:27.980Z,8.00
2019-03-28T01:17:55.721Z,8.00
2019-03-28T01:20:23.488Z,8.00
2019-03-28T01:22:51.221Z,8.00
2019-03-28T01:25:18.964Z,8.20
2019-03-28T01:27:46.714Z,8.10
2019-03-28T01:30:14.688Z,8.20
2019-03-28T01:32:42.500Z,8.10
2019-03-28T01:35:11.161Z,8.00
2019-03-28T01:37:38.902Z,8.10
2019-03-28T01:40:07.282Z,8.20
2019-03-28T01:42:35.034Z,8.10
2019-03-28T01:45:03.264Z,8.00
2019-03-28T01:47:31.044Z,8.10
2019-03-28T01:49:58.796Z,8.00
2019-03-28T01:52:26.568Z,7.90
2019-03-28T01:54:54.763Z,8.00
2019-03-28T01:57:23.080Z,8.10
2019-03-28T01:59:50.840Z,8.10
2019-03-28T02:02:18.601Z,8.10
2019-03-28T02:04:46.329Z,8.20
2019-03-28T02:07:14.184Z,8.20
2019-03-28T02:09:41.924Z,8.20
2019-03-28T02:12:09.680Z,8.20
2019-03-28T02:14:38.305Z,8.20
2019-03-28T02:17:06.168Z,8.20
2019-03-28T02:19:34.008Z,8.00
2019-03-28T02:22:01.765Z,8.00
2019-03-28T02:24:29.504Z,8.10
2019-03-28T02:26:57.265Z,8.00
2019-03-28T02:29:25.008Z,8.00
2019-03-28T02:31:52.762Z,7.90
2019-03-28T02:34:20.493Z,7.90
2019-03-28T02:36:49.156Z,8.00
2019-03-28T02:39:16.921Z,8.10
2019-03-28T02:41:44.769Z,8.00
2019-03-28T02:44:12.556Z,8.00
2019-03-28T02:46:40.291Z,8.10
2019-03-28T02:49:08.031Z,8.10
2019-03-28T02:51:35.881Z,8.00
2019-03-28T02:54:03.640Z,7.90
2019-03-28T02:56:31.504Z,7.80
2019-03-28T02:58:59.261Z,7.80
2019-03-28T03:01:30.089Z,7.80
2019-03-28T03:03:56.705Z,7.80
2019-03-28T03:06:24.762Z,7.80
2019-03-28T03:08:52.541Z,7.80
2019-03-28T03:11:20.301Z,7.90
2019-03-28T03:13:48.058Z,7.90
2019-03-28T03:16:15.788Z,7.80
2019-03-28T03:18:43.565Z,8.00
2019-03-28T03:21:11.389Z,8.10
2019-03-28T03:23:39.154Z,8.00
2019-03-28T03:26:06.917Z,7.80
2019-03-28T03:28:34.659Z,7.80
2019-03-28T03:31:02.395Z,7.80
2019-03-28T03:33:30.159Z,7.70
2019-03-28T03:35:58.009Z,7.70
2019-03-28T03:38:26.719Z,7.70
2019-03-28T03:40:54.891Z,7.70
2019-03-28T03:43:23.166Z,7.70
2019-03-28T03:45:51.265Z,7.70
2019-03-28T03:48:19.013Z,7.70
2019-03-28T03:50:46.761Z,7.70
2019-03-28T03:53:14.444Z,7.70
2019-03-28T03:55:42.293Z,7.70
2019-03-28T03:58:16.434Z,7.70
2019-03-28T04:00:39.782Z,7.60
2019-03-28T04:03:07.558Z,7.60
2019-03-28T04:05:35.380Z,7.60
2019-03-28T04:08:03.178Z,7.80
2019-03-28T04:10:31.032Z,7.70
2019-03-28T04:12:58.774Z,7.70
2019-03-28T04:15:26.567Z,7.60
2019-03-28T04:17:54.303Z,7.80
2019-03-28T04:20:22.038Z,7.80
2019-03-28T04:22:49.777Z,7.80
2019-03-28T04:25:17.624Z,7.80
2019-03-28T04:27:57.339Z,7.50
2019-03-28T04:30:25.052Z,7.50
2019-03-28T04:32:52.804Z,7.60
2019-03-28T04:35:20.566Z,7.60
2019-03-28T04:37:48.405Z,7.70
2019-03-28T04:40:17.084Z,7.70
2019-03-28T04:42:46.003Z,7.60
2019-03-28T04:45:13.950Z,7.60
2019-03-28T04:47:41.704Z,7.60
2019-03-28T04:50:10.328Z,7.60
2019-03-28T04:52:38.281Z,7.50
2019-03-28T04:55:06.648Z,7.50
2019-03-28T04:57:34.414Z,7.40
2019-03-28T05:00:02.523Z,7.50
2019-03-28T05:02:31.329Z,7.60
2019-03-28T05:04:59.485Z,7.60
2019-03-28T05:07:27.221Z,7.40
2019-03-28T05:09:54.860Z,7.50
2019-03-28T05:12:22.653Z,7.60
2019-03-28T05:14:50.380Z,7.70
2019-03-28T05:17:18.160Z,7.60
2019-03-28T05:19:46.020Z,7.70
2019-03-28T05:22:13.765Z,7.80
2019-03-28T05:24:41.513Z,7.80
2019-03-28T05:27:09.268Z,7.60
2019-03-28T05:29:36.988Z,7.70
2019-03-28T05:32:07.025Z,7.80
2019-03-28T05:34:34.780Z,7.80
2019-03-28T05:37:02.529Z,7.50
2019-03-28T05:39:30.348Z,7.40
2019-03-28T05:41:58.146Z,7.50
2019-03-28T05:44:25.880Z,7.70
2019-03-28T05:46:53.628Z,7.80
2019-03-28T05:49:21.446Z,8.00
2019-03-28T05:51:49.229Z,8.10
2019-03-28T05:54:17.000Z,8.00
2019-03-28T05:56:44.880Z,7.90
2019-03-28T05:59:12.604Z,7.90
2019-03-28T06:01:40.493Z,7.80
2019-03-28T06:04:08.432Z,7.80
2019-03-28T06:06:36.401Z,8.00
2019-03-28T06:09:06.349Z,8.10
2019-03-28T06:11:34.144Z,8.20
2019-03-28T06:14:01.956Z,8.20
2019-03-28T06:16:29.700Z,8.40
2019-03-28T06:18:57.465Z,8.50
2019-03-28T06:21:25.216Z,8.60
2019-03-28T06:23:53.101Z,8.70
2019-03-28T06:26:21.081Z,8.80
2019-03-28T06:28:48.824Z,8.80
2019-03-28T06:31:16.561Z,8.90
2019-03-28T06:33:44.299Z,8.80
2019-03-28T06:36:12.046Z,8.90
2019-03-28T06:38:39.784Z,9.00
2019-03-28T06:41:07.882Z,9.30
2019-03-28T06:43:36.536Z,9.40
2019-03-28T06:46:04.312Z,9.40
2019-03-28T06:48:32.065Z,9.70
2019-03-28T06:50:59.798Z,9.60
2019-03-28T06:53:27.552Z,9.50
2019-03-28T06:55:55.302Z,9.40
2019-03-28T06:58:23.063Z,9.60
2019-03-28T07:00:50.811Z,9.70
2019-03-28T07:03:18.560Z,9.60
2019-03-28T07:05:46.289Z,9.80
2019-03-28T07:08:14.090Z,9.80
2019-03-28T07:10:41.832Z,9.70
2019-03-28T07:13:10.350Z,9.90
2019-03-28T07:15:38.282Z,9.90
2019-03-28T07:18:06.033Z,9.90
2019-03-28T07:20:33.832Z,10.00
2019-03-28T07:23:01.573Z,10.00
2019-03-28T07:25:30.474Z,10.10
2019-03-28T07:27:58.337Z,10.30
2019-03-28T07:30:26.092Z,10.50
2019-03-28T07:32:54.008Z,10.60
2019-03-28T07:35:21.755Z,10.70
2019-03-28T07:37:49.640Z,10.40
2019-03-28T07:40:17.573Z,10.70
2019-03-28T07:42:45.324Z,11.30
2019-03-28T07:45:14.320Z,11.50
2019-03-28T07:47:42.119Z,11.60
2019-03-28T07:50:10.242Z,11.90
2019-03-28T07:52:38.131Z,12.10
2019-03-28T07:55:07.493Z,11.80
2019-03-28T07:57:35.361Z,11.50
2019-03-28T08:00:05.806Z,11.70
2019-03-28T08:02:33.545Z,11.60
2019-03-28T08:05:02.112Z,11.50
2019-03-28T08:07:30.185Z,11.50
2019-03-28T08:09:58.021Z,11.30
2019-03-28T08:12:25.769Z,11.50
2019-03-28T08:14:53.512Z,11.70
2019-03-28T08:17:21.289Z,11.80
2019-03-28T08:19:49.129Z,11.80
2019-03-28T08:22:16.893Z,11.60
2019-03-28T08:24:44.642Z,11.70
2019-03-28T08:27:12.381Z,12.00
2019-03-28T08:29:40.196Z,11.60
2019-03-28T08:32:13.652Z,11.20
2019-03-28T08:34:41.575Z,10.90
2019-03-28T08:37:09.328Z,10.90
2019-03-28T08:39:37.365Z,11.10
2019-03-28T08:42:05.110Z,11.40
2019-03-28T08:44:32.844Z,11.70
2019-03-28T08:47:00.650Z,12.00
2019-03-28T08:49:28.784Z,12.20
2019-03-28T08:51:56.545Z,12.40
2019-03-28T08:54:24.321Z,12.50
2019-03-28T08:56:52.056Z,12.50
2019-03-28T08:59:19.808Z,12.50
2019-03-28T09:04:33.607Z,12.60
2019-03-28T09:07:01.365Z,12.50
2019-03-28T09:09:29.113Z,12.40
2019-03-28T09:11:56.876Z,12.60
2019-03-28T09:14:24.626Z,13.00
2019-03-28T09:17:01.241Z,12.90
2019-03-28T09:22:15.073Z,12.50
2019-03-28T09:24:42.858Z,12.20
2019-03-28T09:27:10.700Z,12.00
2019-03-28T09:29:38.455Z,12.20
2019-03-28T09:32:06.209Z,12.60
2019-03-28T09:34:34.077Z,13.00
2019-03-28T09:37:01.814Z,13.20
2019-03-28T09:39:29.568Z,13.20
2019-03-28T09:41:57.494Z,13.30
2019-03-28T09:44:25.300Z,13.10
2019-03-28T09:46:53.056Z,13.10
2019-03-28T09:49:20.825Z,13.40
2019-03-28T09:51:48.578Z,13.10
2019-03-28T09:54:16.349Z,13.30
2019-03-28T09:56:44.088Z,13.40
2019-03-28T09:59:11.949Z,13.40
2019-03-28T10:01:39.688Z,13.50
2019-03-28T10:04:07.477Z,13.70
2019-03-28T10:06:35.241Z,13.50
2019-03-28T10:09:04.497Z,13.60
2019-03-28T10:11:32.235Z,13.70
2019-03-28T10:14:00.023Z,13.60
2019-03-28T10:16:27.947Z,13.40
2019-03-28T10:18:55.824Z,13.60
2019-03-28T10:21:23.668Z,13.70
2019-03-28T10:23:51.414Z,13.80
2019-03-28T10:26:19.158Z,13.80
2019-03-28T10:28:46.903Z,13.80
2019-03-28T10:31:16.654Z,13.60
2019-03-28T10:33:44.412Z,13.60
2019-03-28T10:36:12.198Z,13.40
2019-03-28T10:38:40.070Z,13.00
2019-03-28T10:41:07.827Z,13.00
2019-03-28T10:43:35.664Z,12.90
2019-03-28T10:46:03.445Z,12.70
2019-03-28T10:48:31.218Z,12.60
2019-03-28T10:50:59.889Z,12.80
2019-03-28T10:53:30.086Z,12.80
2019-03-28T10:55:57.615Z,12.60
2019-03-28T10:58:25.404Z,12.50
2019-03-28T11:00:54.732Z,12.20
2019-03-28T11:03:22.800Z,12.30
2019-03-28T11:06:02.835Z,12.40
2019-03-28T11:08:30.649Z,12.40
2019-03-28T11:10:58.629Z,12.70
2019-03-28T11:13:26.640Z,12.70
2019-03-28T11:15:54.481Z,12.20
2019-03-28T11:18:22.284Z,11.80
2019-03-28T11:20:50.168Z,11.50
2019-03-28T11:23:17.954Z,11.50
2019-03-28T11:25:45.745Z,11.70
2019-03-28T11:28:13.538Z,11.70
2019-03-28T11:30:41.380Z,12.00
2019-03-28T11:33:09.221Z,12.40
2019-03-28T11:35:36.970Z,12.40
2019-03-28T11:38:05.062Z,12.40
2019-03-28T11:40:32.921Z,12.20
2019-03-28T11:43:00.844Z,12.00
2019-03-28T11:45:28.709Z,12.10
2019-03-28T11:47:56.604Z,12.50
2019-03-28T11:50:24.612Z,12.40
2019-03-28T11:52:53.329Z,12.20
2019-03-28T11:55:21.169Z,12.30
2019-03-28T11:57:48.945Z,12.20
2019-03-28T12:00:18.303Z,11.80
2019-03-28T12:02:46.044Z,11.60
2019-03-28T12:05:14.074Z,11.60
2019-03-28T12:07:42.015Z,11.80
2019-03-28T12:10:12.056Z,11.80
2019-03-28T12:12:39.813Z,11.80
2019-03-28T12:15:08.656Z,12.00
2019-03-28T12:17:36.496Z,12.30
2019-03-28T12:20:05.168Z,12.70
2019-03-28T12:22:32.932Z,13.00
2019-03-28T12:25:01.053Z,12.80
2019-03-28T12:27:28.894Z,12.70
2019-03-28T12:29:56.640Z,12.50
2019-03-28T12:32:24.493Z,12.50
2019-03-28T12:34:52.156Z,12.60
2019-03-28T12:37:19.949Z,12.70
2019-03-28T12:39:48.161Z,12.70
2019-03-28T12:42:16.053Z,12.50
2019-03-28T12:44:56.366Z,12.70
2019-03-28T12:47:13.557Z,12.50
2019-03-28T12:49:41.349Z,12.50
2019-03-28T12:52:09.072Z,12.50
2019-03-28T12:54:36.833Z,12.30
2019-03-28T12:57:04.959Z,12.20
2019-03-28T12:59:33.745Z,12.00
2019-03-28T13:02:01.868Z,11.70
2019-03-28T13:04:29.629Z,11.60
2019-03-28T13:06:57.438Z,11.70
2019-03-28T13:09:25.293Z,11.50
2019-03-28T13:11:53.405Z,11.60
2019-03-28T13:14:21.560Z,11.60
2019-03-28T13:16:49.516Z,11.60
2019-03-28T13:19:18.113Z,11.50
2019-03-28T13:21:46.066Z,11.80
2019-03-28T13:24:14.972Z,11.90
2019-03-28T13:26:42.981Z,12.00
2019-03-28T13:29:11.249Z,12.10
2019-03-28T13:31:40.585Z,12.20
2019-03-28T13:34:08.408Z,12.10
2019-03-28T13:36:37.089Z,11.80
2019-03-28T13:39:06.581Z,12.00
2019-03-28T13:41:34.344Z,11.90
2019-03-28T13:44:02.081Z,11.80
2019-03-28T13:46:29.842Z,11.80
2019-03-28T13:48:57.609Z,11.90
2019-03-28T13:51:25.437Z,12.10
2019-03-28T13:53:54.136Z,12.20
2019-03-28T13:56:22.033Z,12.40
2019-03-28T13:58:49.771Z,12.40
2019-03-28T14:01:17.557Z,12.50
2019-03-28T14:03:45.465Z,12.60
2019-03-28T14:06:13.219Z,12.50
2019-03-28T14:08:40.985Z,12.30
2019-03-28T14:11:08.826Z,12.10
2019-03-28T14:13:36.571Z,12.20
2019-03-28T14:16:04.367Z,12.40
2019-03-28T14:18:32.283Z,12.60
2019-03-28T14:21:00.028Z,12.60
2019-03-28T14:23:27.902Z,12.50
2019-03-28T14:25:55.708Z,12.50
2019-03-28T14:28:23.726Z,12.30
2019-03-28T14:30:51.773Z,12.30
2019-03-28T14:33:19.680Z,12.40
2019-03-28T14:35:47.478Z,12.60
2019-03-28T14:38:16.212Z,12.70
2019-03-28T14:40:43.969Z,12.60
2019-03-28T14:43:11.735Z,12.00
2019-03-28T14:45:39.505Z,11.80
2019-03-28T14:48:08.296Z,11.60
2019-03-28T14:50:38.428Z,11.60
2019-03-28T14:53:06.231Z,11.50
2019-03-28T14:55:34.713Z,11.40
2019-03-28T14:58:03.876Z,11.40
2019-03-28T15:00:49.193Z,11.50
2019-03-28T15:03:25.668Z,11.40
2019-03-28T15:05:47.333Z,11.20
2019-03-28T15:08:15.101Z,11.30
2019-03-28T15:10:42.973Z,11.20
2019-03-28T15:13:10.751Z,11.20
2019-03-28T15:15:38.506Z,11.30
2019-03-28T15:18:06.277Z,11.20
2019-03-28T15:20:34.092Z,11.20
2019-03-28T15:23:02.077Z,11.20
2019-03-28T15:25:29.856Z,11.10
2019-03-28T15:27:57.738Z,11.00
2019-03-28T15:30:25.507Z,11.00
2019-03-28T15:32:53.272Z,11.00
2019-03-28T15:35:21.037Z,11.00
2019-03-28T15:37:48.825Z,11.00
2019-03-28T15:40:16.564Z,10.90
2019-03-28T15:42:44.512Z,10.90
2019-03-28T15:45:12.518Z,11.10
2019-03-28T15:47:40.252Z,11.20
2019-03-28T15:50:08.313Z,11.30
2019-03-28T15:52:36.077Z,11.30
2019-03-28T15:55:05.252Z,11.40
2019-03-28T15:57:33.944Z,11.40
2019-03-28T16:00:01.790Z,11.40
2019-03-28T16:02:29.524Z,11.40
2019-03-28T16:04:57.397Z,11.30
2019-03-28T16:07:25.286Z,11.20
2019-03-28T16:09:53.115Z,11.10
2019-03-28T16:12:20.978Z,11.00
2019-03-28T16:14:48.868Z,10.70
2019-03-28T16:17:16.593Z,10.70
2019-03-28T16:19:57.740Z,10.60
2019-03-28T16:22:25.648Z,10.60
2019-03-28T16:24:53.462Z,10.60
2019-03-28T16:27:21.245Z,10.70
2019-03-28T16:29:48.982Z,10.80
2019-03-28T16:32:16.645Z,10.90
2019-03-28T16:34:44.419Z,10.90
2019-03-28T16:37:12.188Z,11.10
2019-03-28T16:39:40.083Z,11.10
2019-03-28T16:42:07.847Z,11.20
2019-03-28T16:44:35.580Z,11.10
2019-03-28T16:47:03.344Z,11.10
2019-03-28T16:49:31.084Z,11.20
2019-03-28T16:51:58.863Z,11.20
2019-03-28T16:54:27.863Z,11.20
2019-03-28T16:56:55.836Z,11.20
2019-03-28T16:59:23.661Z,11.20
2019-03-28T17:01:51.393Z,11.30
2019-03-28T17:04:21.025Z,11.30
2019-03-28T17:06:49.068Z,11.30
2019-03-28T17:09:16.894Z,11.30
2019-03-28T17:11:44.677Z,11.20
2019-03-28T17:14:12.437Z,11.20
2019-03-28T17:16:40.281Z,11.30
2019-03-28T17:19:08.110Z,11.30
2019-03-28T17:21:35.949Z,11.10
2019-03-28T17:24:03.701Z,11.10
2019-03-28T17:26:31.464Z,11.10
2019-03-28T17:28:59.312Z,11.00
2019-03-28T17:31:27.265Z,11.00
2019-03-28T17:33:55.108Z,11.00
2019-03-28T17:36:22.896Z,11.10
2019-03-28T17:38:50.787Z,11.00
2019-03-28T17:41:18.684Z,11.00
2019-03-28T17:43:46.421Z,10.90
2019-03-28T17:46:14.260Z,11.00
2019-03-28T17:48:42.088Z,11.00
2019-03-28T17:51:09.930Z,11.00
2019-03-28T17:53:37.872Z,11.00
2019-03-28T17:56:05.780Z,11.00
2019-03-28T17:58:33.536Z,11.00
2019-03-28T18:01:01.289Z,10.80
2019-03-28T18:03:31.433Z,10.80
2019-03-28T18:05:58.882Z,10.80
2019-03-28T18:08:26.760Z,10.70
2019-03-28T18:10:54.499Z,10.80
2019-03-28T18:13:22.244Z,10.80
2019-03-28T18:15:50.029Z,10.80
2019-03-28T18:18:17.793Z,10.80
2019-03-28T18:20:45.525Z,10.70
2019-03-28T18:23:13.279Z,10.70
2019-03-28T18:25:41.017Z,10.70
2019-03-28T18:28:09.666Z,10.60
2019-03-28T18:30:37.617Z,10.60
2019-03-28T18:33:05.479Z,10.50
2019-03-28T18:35:33.228Z,10.50
2019-03-28T18:38:00.982Z,10.50
2019-03-28T18:40:28.740Z,10.50
2019-03-28T18:42:56.469Z,10.60
2019-03-28T18:45:24.334Z,10.60
2019-03-28T18:47:52.377Z,10.60
2019-03-28T18:50:20.212Z,10.60
2019-03-28T18:52:48.060Z,10.60
2019-03-28T18:55:15.929Z,10.50
2019-03-28T18:57:43.681Z,10.50
2019-03-28T19:00:12.166Z,10.40
2019-03-28T19:02:39.936Z,10.40
2019-03-28T19:05:19.154Z,10.40
2019-03-28T19:07:37.738Z,10.30
2019-03-28T19:10:06.905Z,10.40
2019-03-28T19:12:34.654Z,10.50
2019-03-28T19:15:03.501Z,10.40
2019-03-28T19:17:31.362Z,10.30
2019-03-28T19:19:59.644Z,10.30
2019-03-28T19:22:27.588Z,10.30
2019-03-28T19:24:55.348Z,10.30
2019-03-28T19:27:23.084Z,10.30
2019-03-28T19:37:32.909Z,10.30
2019-03-28T19:40:00.785Z,10.30
2019-03-28T19:42:29.095Z,10.40
2019-03-28T19:44:56.952Z,10.30
2019-03-28T19:47:24.761Z,10.30
2019-03-28T19:49:52.658Z,10.40
2019-03-28T19:52:20.578Z,10.30
2019-03-28T19:54:48.454Z,10.30
2019-03-28T19:57:16.218Z,10.40
2019-03-28T19:59:43.965Z,10.40
2019-03-28T20:02:14.222Z,10.40
2019-03-28T20:04:41.553Z,10.40
2019-03-28T20:07:20.823Z,10.30
2019-03-28T20:09:39.085Z,10.30
2019-03-28T20:12:06.877Z,10.30
2019-03-28T20:14:34.740Z,10.20
2019-03-28T20:17:02.473Z,10.20
2019-03-28T20:19:30.212Z,10.30
2019-03-28T20:21:59.538Z,10.30
2019-03-28T20:24:27.689Z,10.40
2019-03-28T20:26:56.113Z,10.30
2019-03-28T20:29:24.089Z,10.20
2019-03-28T20:31:51.835Z,10.10
2019-03-28T20:34:19.576Z,10.20
2019-03-28T20:36:47.417Z,10.20
2019-03-28T20:39:15.180Z,10.30
2019-03-28T20:41:43.055Z,10.20
2019-03-28T20:44:11.799Z,10.10
2019-03-28T20:46:40.848Z,10.10
2019-03-28T20:49:09.620Z,10.00
2019-03-28T20:51:37.716Z,10.00
2019-03-28T20:54:07.752Z,10.20
2019-03-28T20:56:35.103Z,9.90
2019-03-28T20:59:02.945Z,9.80
2019-03-28T21:01:30.973Z,9.90
2019-03-28T21:03:58.916Z,9.90
2019-03-28T21:06:26.797Z,9.80
2019-03-28T21:08:54.568Z,9.80
2019-03-28T21:11:23.017Z,9.80
2019-03-28T21:13:50.817Z,9.80
2019-03-28T21:16:18.546Z,9.80
2019-03-28T21:18:46.298Z,9.60
2019-03-28T21:21:14.064Z,9.60
2019-03-28T21:23:41.833Z,9.40
2019-03-28T21:26:09.598Z,9.00
2019-03-28T21:28:46.999Z,9.10
2019-03-28T21:31:06.998Z,9.30
2019-03-28T21:33:34.746Z,9.40
2019-03-28T21:36:02.497Z,9.40
2019-03-28T21:38:30.292Z,9.50
2019-03-28T21:40:59.523Z,9.60
2019-03-28T21:43:27.757Z,9.60
2019-03-28T21:45:55.727Z,9.60
2019-03-28T21:48:23.642Z,9.60
2019-03-28T21:50:51.527Z,9.60
2019-03-28T21:53:20.150Z,9.60
2019-03-28T21:55:54.884Z,9.50
2019-03-28T21:58:19.132Z,9.50
2019-03-28T22:00:46.947Z,9.50
2019-03-28T22:03:15.047Z,9.50
2019-03-28T22:05:43.086Z,9.50
2019-03-28T22:08:10.773Z,9.50
2019-03-28T22:10:39.053Z,9.50
2019-03-28T22:13:07.060Z,9.40
2019-03-28T22:15:34.986Z,9.30
2019-03-28T22:18:02.954Z,9.20
2019-03-28T22:20:30.688Z,9.10
2019-03-28T22:22:58.457Z,9.00
2019-03-28T22:25:26.214Z,9.00
2019-03-28T22:27:54.053Z,9.10
2019-03-28T22:30:21.796Z,9.10
2019-03-28T22:32:50.065Z,9.10
2019-03-28T22:35:18.238Z,9.10
2019-03-28T22:37:45.989Z,9.20
2019-03-28T22:40:13.928Z,9.00
2019-03-28T22:42:41.693Z,9.10
2019-03-28T22:45:11.253Z,9.10
2019-03-28T22:47:38.976Z,9.00
2019-03-28T22:50:08.151Z,8.90
2019-03-28T22:52:35.868Z,8.80
2019-03-28T22:55:04.607Z,8.70
2019-03-28T22:57:32.351Z,8.60
2019-03-28T23:00:00.161Z,8.50
2019-03-28T23:02:29.004Z,8.40
2019-03-28T23:04:57.035Z,8.30
2019-03-28T23:07:24.765Z,8.20
2019-03-28T23:09:52.536Z,8.00
2019-03-28T23:12:20.293Z,7.90
2019-03-28T23:14:48.031Z,7.90
2019-03-28T23:17:15.778Z,8.00
2019-03-28T23:19:43.599Z,7.90
2019-03-28T23:22:11.356Z,8.00
2019-03-28T23:24:39.219Z,8.00
2019-03-28T23:27:07.089Z,7.90
2019-03-28T23:29:34.829Z,7.80
2019-03-28T23:32:02.564Z,7.60
2019-03-28T23:34:30.331Z,7.50
2019-03-28T23:36:58.199Z,7.60
2019-03-28T23:39:26.632Z,7.50
2019-03-28T23:41:54.396Z,7.40
2019-03-28T23:44:22.132Z,7.20
2019-03-28T23:46:49.894Z,7.10
2019-03-28T23:49:17.652Z,6.90
2019-03-28T23:51:45.402Z,6.90
2019-03-28T23:54:13.166Z,6.70
2019-03-28T23:56:40.956Z,6.50
2019-03-28T23:59:10.709Z,6.50
